Overview Statistics Trail Chart Weather Telemetry Raw packets
 

This is the latest recevied weather packets stored in our database for station/object SV9TNF-56. If no packets are shown the sender has not sent any weather packets the latest 10 day(s).

<< 71 72 73 74 75 76 77 >>
Time Temp. Humidity Pressure Rain* Wind** Luminosity Snow
1788157060 25.56° C 63% 1019 hPa 0 mm 0 m/s - -
1788156760 25° C 65% 1019 hPa 0 mm 4.92 m/s, 240° - -
1788156460 25° C 67% 1019 hPa 0 mm 5.36 m/s, 222° - -
1788156160 25° C 68% 1019 hPa 0 mm 6.26 m/s, 192° - -
1788155860 25° C 68% 1019 hPa 0 mm 2.68 m/s, 174° - -
1788155560 25° C 67% 1019 hPa 0 mm 4.92 m/s, 174° - -
1788155260 25° C 67% 1019 hPa 0 mm 8.05 m/s, 148° - -
1788154960 25° C 66% 1018.6 hPa 0 mm 8.05 m/s, 160° - -
1788154660 25° C 66% 1019 hPa 0 mm 8.94 m/s, 92° - -
1788154359 25° C 66% 1018.6 hPa 0 mm 6.26 m/s, 162° - -
1788154059 25° C 67% 1018.6 hPa 0 mm 7.15 m/s, 150° - -
1788153759 25° C 67% 1018.6 hPa 0 mm 8.05 m/s, 154° - -
1788153459 25° C 66% 1018.6 hPa 0 mm 9.83 m/s, 138° - -
1788153159 25° C 66% 1019 hPa 0 mm 16.09 m/s, 79° - -
1788152859 25° C 67% 1018.6 hPa 0 mm 12.07 m/s, 120° - -
1788152559 24.44° C 68% 1018.6 hPa 0 mm 4.92 m/s, 150° - -
1788152259 24.44° C 70% 1018.6 hPa 0 mm 8.05 m/s, 132° - -
1788151959 24.44° C 70% 1018.6 hPa 0 mm 8.94 m/s, 138° - -
1788151659 24.44° C 69% 1018.3 hPa 0 mm 4.92 m/s, 284° - -
1788151377 24.44° C 68% 1018.6 hPa 0 mm 4.92 m/s, 168° - -
1788151059 24.44° C 66% 1018.6 hPa 0 mm 4.92 m/s, 249° - -
1788150759 24.44° C 64% 1018.6 hPa 0 mm 4.92 m/s, 253° - -
1788150458 23.89° C 65% 1018.3 hPa 0 mm 16.09 m/s, 114° - -
1788150158 23.89° C 68% 1018.3 hPa 0 mm 10.28 m/s, 240° - -
1788149858 23.89° C 70% 1018.3 hPa 0 mm 12.96 m/s, 143° - -

* Rain latest hour (hover to see other rain measurements)
** Current wind speed in m/s (hover to see current wind gust speed)